createdAt,value
2016-02-07T00:00:47.373Z,0
2016-02-07T00:01:47.377Z,0
2016-02-07T00:02:47.380Z,0
2016-02-07T00:03:47.351Z,0
2016-02-07T00:04:47.338Z,0
2016-02-07T00:05:47.357Z,0
2016-02-07T00:06:47.359Z,0
2016-02-07T00:07:47.175Z,0
2016-02-07T00:08:47.336Z,0
2016-02-07T00:09:47.338Z,0
2016-02-07T00:10:47.372Z,0
2016-02-07T00:11:47.296Z,0
2016-02-07T00:12:47.299Z,0
2016-02-07T00:13:47.319Z,0
2016-02-07T00:14:47.352Z,0
2016-02-07T00:15:47.324Z,0
2016-02-07T00:16:47.143Z,0
2016-02-07T00:17:47.286Z,0
2016-02-07T00:18:47.289Z,0
2016-02-07T00:19:47.292Z,0
2016-02-07T00:20:47.262Z,0
2016-02-07T00:21:47.267Z,0
2016-02-07T00:22:47.270Z,0
2016-02-07T00:23:47.272Z,0
2016-02-07T00:24:47.246Z,0
2016-02-07T00:25:47.250Z,0
2016-02-07T00:26:47.252Z,0
2016-02-07T00:27:47.255Z,0
2016-02-07T00:28:47.224Z,0
2016-02-07T00:29:47.228Z,0
2016-02-07T00:30:47.250Z,0
2016-02-07T00:31:47.222Z,0
2016-02-07T00:32:47.241Z,0
2016-02-07T00:33:47.212Z,0
2016-02-07T00:34:47.233Z,0
2016-02-07T00:35:47.204Z,0
2016-02-07T00:36:47.191Z,0
2016-02-07T00:37:47.210Z,0
2016-02-07T00:38:47.212Z,0
2016-02-07T00:39:47.184Z,0
2016-02-07T00:40:47.173Z,0
2016-02-07T00:41:47.018Z,0
2016-02-07T00:42:47.194Z,0
2016-02-07T00:43:47.167Z,0
2016-02-07T00:44:47.185Z,0
2016-02-07T00:45:47.031Z,0
2016-02-07T00:46:47.175Z,0
2016-02-07T00:47:47.161Z,0
2016-02-07T00:48:47.133Z,0
2016-02-07T00:49:47.136Z,0
2016-02-07T00:50:47.123Z,0
2016-02-07T00:51:47.171Z,0
2016-02-07T00:52:47.129Z,0
2016-02-07T00:53:47.120Z,0
2016-02-07T00:54:47.107Z,0
2016-02-07T00:55:47.125Z,0
2016-02-07T00:56:47.175Z,0
2016-02-07T00:57:47.100Z,0
2016-02-07T00:58:47.086Z,0
2016-02-07T00:59:47.105Z,0
2016-02-07T01:00:47.123Z,0
2016-02-07T01:01:47.079Z,0
2016-02-07T01:02:47.098Z,0
2016-02-07T01:03:47.101Z,0
2016-02-07T01:04:47.073Z,0
2016-02-07T01:05:47.060Z,0
2016-02-07T01:06:47.094Z,0
2016-02-07T01:07:47.049Z,0
2016-02-07T01:08:47.041Z,0
2016-02-07T01:09:47.058Z,0
2016-02-07T01:10:47.046Z,0
2016-02-07T01:11:47.033Z,0
2016-02-07T01:12:47.036Z,0
2016-02-07T01:13:47.039Z,0
2016-02-07T01:14:46.885Z,0
2016-02-07T01:15:47.013Z,0
2016-02-07T01:16:47.001Z,0
2016-02-07T01:17:47.035Z,0
2016-02-07T01:18:47.023Z,0
2016-02-07T01:19:46.994Z,0
2016-02-07T01:20:46.997Z,0
2016-02-07T01:21:47.000Z,0
2016-02-07T01:22:47.002Z,0
2016-02-07T01:23:46.974Z,0
2016-02-07T01:24:46.962Z,0
2016-02-07T01:25:46.996Z,0
2016-02-07T01:26:46.967Z,0
2016-02-07T01:27:46.970Z,0
2016-02-07T01:28:46.972Z,0
2016-02-07T01:29:46.961Z,0
2016-02-07T01:30:46.947Z,0
2016-02-07T01:31:46.935Z,0
2016-02-07T01:32:46.937Z,0
2016-02-07T01:33:46.955Z,0
2016-02-07T01:34:46.942Z,0
2016-02-07T01:35:46.930Z,0
2016-02-07T01:36:46.916Z,0
2016-02-07T01:37:46.939Z,0
2016-02-07T01:38:46.925Z,0
2016-02-07T01:39:46.897Z,0
2016-02-07T01:40:46.900Z,0
2016-02-07T01:41:46.903Z,0
2016-02-07T01:42:46.890Z,0
2016-02-07T01:43:46.908Z,0
2016-02-07T01:44:46.895Z,0
2016-02-07T01:45:46.898Z,0
2016-02-07T01:46:46.869Z,0
2016-02-07T01:47:46.871Z,0
2016-02-07T01:48:46.890Z,0
2016-02-07T01:49:46.862Z,0
2016-02-07T01:50:46.850Z,0
2016-02-07T01:51:46.852Z,0
2016-02-07T01:52:46.871Z,0
2016-02-07T01:53:46.858Z,0
2016-02-07T01:54:46.830Z,0
2016-02-07T01:55:46.818Z,0
2016-02-07T01:56:46.852Z,0
2016-02-07T01:57:46.823Z,0
2016-02-07T01:58:46.811Z,0
2016-02-07T01:59:46.830Z,0
2016-02-07T02:00:46.849Z,0
2016-02-07T02:01:46.804Z,0
2016-02-07T02:02:46.854Z,0
2016-02-07T02:03:46.631Z,0
2016-02-07T02:04:46.761Z,0
2016-02-07T02:05:46.764Z,0
2016-02-07T02:06:46.751Z,0
2016-02-07T02:07:46.708Z,0
2016-02-07T02:08:46.685Z,0
2016-02-07T02:09:46.699Z,0
2016-02-07T02:10:46.680Z,0
2016-02-07T02:11:46.662Z,0
2016-02-07T02:12:46.659Z,0
2016-02-07T02:13:46.673Z,0
2016-02-07T02:14:46.675Z,0
2016-02-07T02:15:46.628Z,0
2016-02-07T02:16:46.629Z,0
2016-02-07T02:17:46.630Z,0
2016-02-07T02:18:46.647Z,0
2016-02-07T02:19:46.633Z,0
2016-02-07T02:20:46.604Z,0
2016-02-07T02:21:46.592Z,0
2016-02-07T02:22:46.610Z,0
2016-02-07T02:23:46.613Z,0
2016-02-07T02:24:46.571Z,0
2016-02-07T02:25:46.573Z,0
2016-02-07T02:26:46.671Z,0
2016-02-07T02:27:46.256Z,0
2016-02-07T02:28:46.576Z,0
2016-02-07T02:29:46.643Z,0
2016-02-07T02:30:47.035Z,0
2016-02-07T02:31:46.554Z,0
2016-02-07T02:32:46.556Z,0
2016-02-07T02:33:46.560Z,0
2016-02-07T02:34:46.531Z,0
2016-02-07T02:35:46.518Z,0
2016-02-07T02:36:46.551Z,0
2016-02-07T02:37:46.507Z,0
2016-02-07T02:38:46.510Z,0
2016-02-07T02:39:46.529Z,0
2016-02-07T02:40:46.531Z,0
2016-02-07T02:41:46.503Z,0
2016-02-07T02:42:46.489Z,0
2016-02-07T02:43:46.498Z,0
2016-02-07T02:44:46.516Z,0
2016-02-07T02:45:46.473Z,0
2016-02-07T02:46:46.475Z,0
2016-02-07T02:47:46.478Z,0
2016-02-07T02:48:46.496Z,0
2016-02-07T02:49:46.453Z,0
2016-02-07T02:50:46.456Z,0
2016-02-07T02:51:46.459Z,0
2016-02-07T02:52:46.505Z,0
2016-02-07T02:53:46.445Z,0
2016-02-07T02:54:46.447Z,0
2016-02-07T02:55:46.466Z,0
2016-02-07T02:56:46.452Z,0
2016-02-07T02:57:46.407Z,0
2016-02-07T02:58:46.429Z,0
2016-02-07T02:59:46.431Z,0
2016-02-07T03:00:46.449Z,0
2016-02-07T03:01:46.436Z,0
2016-02-07T03:02:46.440Z,0
2016-02-07T03:03:46.395Z,0
2016-02-07T03:04:46.404Z,0
2016-02-07T03:05:46.390Z,0
2016-02-07T03:06:46.377Z,0
2016-02-07T03:07:46.364Z,0
2016-02-07T03:08:46.399Z,0
2016-02-07T03:09:46.385Z,0
2016-02-07T03:10:46.357Z,0
2016-02-07T03:11:46.347Z,0
2016-02-07T03:12:46.350Z,0
2016-02-07T03:13:46.353Z,0
2016-02-07T03:14:46.340Z,0
2016-02-07T03:15:46.326Z,0
2016-02-07T03:16:46.345Z,0
2016-02-07T03:17:46.347Z,0
2016-02-07T03:18:46.320Z,0
2016-02-07T03:19:46.307Z,0
2016-02-07T03:20:46.310Z,0
2016-02-07T03:21:46.315Z,0
2016-02-07T03:22:46.302Z,0
2016-02-07T03:23:46.290Z,0
2016-02-07T03:24:46.292Z,0
2016-02-07T03:25:46.310Z,0
2016-02-07T03:26:46.313Z,0
2016-02-07T03:27:46.268Z,0
2016-02-07T03:28:46.271Z,0
2016-02-07T03:29:46.274Z,0
2016-02-07T03:30:46.276Z,0
2016-02-07T03:31:46.123Z,0
2016-02-07T03:32:46.254Z,0
2016-02-07T03:33:46.085Z,0
2016-02-07T03:34:46.243Z,0
2016-02-07T03:35:46.262Z,0
2016-02-07T03:36:46.233Z,0
2016-02-07T03:37:46.252Z,0
2016-02-07T03:38:46.239Z,0
2016-02-07T03:39:46.257Z,0
2016-02-07T03:40:46.214Z,0
2016-02-07T03:41:46.217Z,0
2016-02-07T03:42:46.220Z,0
2016-02-07T03:43:46.238Z,0
2016-02-07T03:44:46.193Z,0
2016-02-07T03:45:46.182Z,0
2016-02-07T03:46:46.199Z,0
2016-02-07T03:47:46.203Z,0
2016-02-07T03:48:46.205Z,0
2016-02-07T03:49:46.163Z,0
2016-02-07T03:50:46.165Z,0
2016-02-07T03:51:46.184Z,0
2016-02-07T03:52:46.187Z,0
2016-02-07T03:53:46.158Z,0
2016-02-07T03:54:46.161Z,0
2016-02-07T03:55:46.148Z,0
2016-02-07T03:56:46.135Z,0
2016-02-07T03:57:46.138Z,0
2016-02-07T03:58:46.125Z,0
2016-02-07T03:59:46.143Z,0
2016-02-07T04:00:46.115Z,0
2016-02-07T04:01:46.121Z,0
2016-02-07T04:02:46.123Z,0
2016-02-07T04:03:46.110Z,0
2016-02-07T04:04:46.144Z,0
2016-02-07T04:05:46.099Z,0
2016-02-07T04:06:46.103Z,0
2016-02-07T04:07:46.090Z,0
2016-02-07T04:08:46.108Z,0
2016-02-07T04:09:46.094Z,0
2016-02-07T04:10:46.082Z,0
2016-02-07T04:11:46.100Z,0
2016-02-07T04:12:46.119Z,0
2016-02-07T04:13:46.058Z,0
2016-02-07T04:14:46.061Z,0
2016-02-07T04:15:46.063Z,0
2016-02-07T04:16:46.052Z,0
2016-02-07T04:17:46.037Z,0
2016-02-07T04:18:46.025Z,0
2016-02-07T04:19:46.043Z,0
2016-02-07T04:20:46.062Z,0
2016-02-07T04:21:46.018Z,0
2016-02-07T04:22:46.005Z,0
2016-02-07T04:23:46.023Z,0
2016-02-07T04:24:46.026Z,0
2016-02-07T04:25:46.012Z,0
2016-02-07T04:26:46.001Z,0
2016-02-07T04:27:46.018Z,0
2016-02-07T04:28:46.021Z,0
2016-02-07T04:29:45.961Z,0
2016-02-07T04:30:45.979Z,0
2016-02-07T04:31:45.967Z,0
2016-02-07T04:32:45.953Z,0
2016-02-07T04:33:45.972Z,0
2016-02-07T04:34:45.959Z,0
2016-02-07T04:35:45.961Z,0
2016-02-07T04:36:45.954Z,0
2016-02-07T04:37:45.972Z,0
2016-02-07T04:38:45.943Z,0
2016-02-07T04:39:45.930Z,0
2016-02-07T04:40:45.933Z,0
2016-02-07T04:41:45.958Z,0
2016-02-07T04:42:45.789Z,0
2016-02-07T04:43:45.916Z,0
2016-02-07T04:44:45.934Z,0
2016-02-07T04:45:45.906Z,0
2016-02-07T04:46:45.898Z,0
2016-02-07T04:47:45.917Z,0
2016-02-07T04:48:45.919Z,0
2016-02-07T04:49:45.891Z,0
2016-02-07T04:50:45.878Z,0
2016-02-07T04:51:45.897Z,0
2016-02-07T04:52:45.899Z,0
2016-02-07T04:53:45.871Z,0
2016-02-07T04:54:45.857Z,0
2016-02-07T04:55:45.876Z,0
2016-02-07T04:56:45.881Z,0
2016-02-07T04:57:45.853Z,0
2016-02-07T04:58:45.840Z,0
2016-02-07T04:59:45.858Z,0
2016-02-07T05:00:45.861Z,0
2016-02-07T05:01:45.832Z,0
2016-02-07T05:02:45.820Z,0
2016-02-07T05:03:45.855Z,0
2016-02-07T05:04:45.825Z,0
2016-02-07T05:05:45.813Z,0
2016-02-07T05:06:45.800Z,0
2016-02-07T05:07:45.819Z,0
2016-02-07T05:08:45.806Z,0
2016-02-07T05:09:45.794Z,0
2016-02-07T05:10:45.797Z,0
2016-02-07T05:11:45.800Z,0
2016-02-07T05:12:45.787Z,0
2016-02-07T05:13:45.789Z,0
2016-02-07T05:14:45.792Z,0
2016-02-07T05:15:45.813Z,0
2016-02-07T05:16:45.793Z,0
2016-02-07T05:17:45.765Z,0
2016-02-07T05:18:45.752Z,0
2016-02-07T05:19:45.739Z,0
2016-02-07T05:20:45.742Z,0
2016-02-07T05:21:45.744Z,0
2016-02-07T05:22:45.763Z,0
2016-02-07T05:23:45.735Z,0
2016-02-07T05:24:45.723Z,0
2016-02-07T05:25:45.725Z,0
2016-02-07T05:26:45.728Z,0
2016-02-07T05:27:45.699Z,0
2016-02-07T05:28:45.702Z,0
2016-02-07T05:29:45.704Z,0
2016-02-07T05:30:45.708Z,0
2016-02-07T05:31:45.694Z,0
2016-02-07T05:32:45.713Z,0
2016-02-07T05:33:45.716Z,0
2016-02-07T05:34:45.671Z,0
2016-02-07T05:35:45.674Z,0
2016-02-07T05:36:45.678Z,0
2016-02-07T05:37:45.680Z,0
2016-02-07T05:38:45.667Z,0
2016-02-07T05:39:45.638Z,0
2016-02-07T05:40:45.657Z,0
2016-02-07T05:41:45.649Z,0
2016-02-07T05:42:45.635Z,0
2016-02-07T05:43:45.623Z,0
2016-02-07T05:44:45.643Z,0
2016-02-07T05:45:45.677Z,0
2016-02-07T05:46:45.633Z,0
2016-02-07T05:47:45.604Z,0
2016-02-07T05:48:45.466Z,0
2016-02-07T05:49:45.644Z,0
2016-02-07T05:50:45.647Z,0
2016-02-07T05:51:45.602Z,0
2016-02-07T05:52:45.588Z,0
2016-02-07T05:53:45.608Z,0
2016-02-07T05:54:45.625Z,0
2016-02-07T05:55:45.581Z,0
2016-02-07T05:56:45.583Z,0
2016-02-07T05:57:45.572Z,0
2016-02-07T05:58:45.606Z,0
2016-02-07T05:59:45.562Z,0
2016-02-07T06:00:45.549Z,0
2016-02-07T06:01:45.552Z,0
2016-02-07T06:02:45.539Z,0
2016-02-07T06:03:45.418Z,0
2016-02-07T06:04:45.576Z,0
2016-02-07T06:05:45.532Z,0
2016-02-07T06:06:45.367Z,0
2016-02-07T06:07:45.527Z,0
2016-02-07T06:08:45.561Z,0
2016-02-07T06:09:45.501Z,0
2016-02-07T06:10:45.492Z,0
2016-02-07T06:11:45.510Z,0
2016-02-07T06:12:45.528Z,0
2016-02-07T06:13:45.500Z,0
2016-02-07T06:14:45.472Z,0
2016-02-07T06:15:45.507Z,0
2016-02-07T06:16:45.509Z,0
2016-02-07T06:17:45.465Z,0
2016-02-07T06:18:45.482Z,0
2016-02-07T06:19:45.485Z,0
2016-02-07T06:20:45.473Z,0
2016-02-07T06:21:45.460Z,0
2016-02-07T06:22:45.462Z,0
2016-02-07T06:23:45.481Z,0
2016-02-07T06:24:45.437Z,0
2016-02-07T06:25:45.439Z,0
2016-02-07T06:26:45.457Z,0
2016-02-07T06:27:45.460Z,0
2016-02-07T06:28:45.417Z,0
2016-02-07T06:29:45.419Z,0
2016-02-07T06:30:45.422Z,0
2016-02-07T06:31:45.425Z,0
2016-02-07T06:32:45.412Z,0
2016-02-07T06:33:45.431Z,0
2016-02-07T06:34:45.402Z,0
2016-02-07T06:35:45.404Z,0
2016-02-07T06:36:45.409Z,0
2016-02-07T06:37:45.693Z,0
2016-02-07T06:38:45.414Z,0
2016-02-07T06:39:45.370Z,0
2016-02-07T06:40:45.373Z,0
2016-02-07T06:41:45.360Z,0
2016-02-07T06:42:45.378Z,0
2016-02-07T06:43:45.382Z,0
2016-02-07T06:44:45.355Z,0
2016-02-07T06:45:45.357Z,0
2016-02-07T06:46:45.360Z,0
2016-02-07T06:47:45.346Z,0
2016-02-07T06:48:45.334Z,0
2016-02-07T06:49:45.322Z,0
2016-02-07T06:50:45.356Z,0
2016-02-07T06:51:45.343Z,0
2016-02-07T06:52:45.331Z,0
2016-02-07T06:53:45.303Z,0
2016-02-07T06:54:45.305Z,0
2016-02-07T06:55:45.339Z,0
2016-02-07T06:56:45.295Z,5
2016-02-07T06:57:45.314Z,5
2016-02-07T06:58:45.317Z,5
2016-02-07T06:59:45.304Z,5
2016-02-07T07:00:45.275Z,5
2016-02-07T07:01:45.278Z,5
2016-02-07T07:02:45.250Z,5
2016-02-07T07:03:45.284Z,5
2016-02-07T07:04:45.291Z,5
2016-02-07T07:05:45.264Z,5
2016-02-07T07:06:45.251Z,5
2016-02-07T07:07:45.254Z,5
2016-02-07T07:08:45.256Z,5
2016-02-07T07:09:45.228Z,5
2016-02-07T07:10:45.232Z,5
2016-02-07T07:11:45.250Z,5
2016-02-07T07:12:45.221Z,5
2016-02-07T07:13:45.240Z,5
2016-02-07T07:14:45.242Z,5
2016-02-07T07:15:45.235Z,5
2016-02-07T07:16:45.206Z,5
2016-02-07T07:17:45.193Z,10
2016-02-07T07:18:45.215Z,10
2016-02-07T07:19:45.218Z,10
2016-02-07T07:20:45.485Z,10
2016-02-07T07:21:45.176Z,10
2016-02-07T07:22:45.193Z,10
2016-02-07T07:23:45.165Z,10
2016-02-07T07:24:45.188Z,10
2016-02-07T07:25:45.191Z,10
2016-02-07T07:26:45.162Z,10
2016-02-07T07:27:45.151Z,10
2016-02-07T07:28:45.167Z,10
2016-02-07T07:29:45.171Z,10
2016-02-07T07:30:45.142Z,10
2016-02-07T07:31:45.133Z,10
2016-02-07T07:32:45.121Z,10
2016-02-07T07:33:45.124Z,10
2016-02-07T07:34:45.173Z,10
2016-02-07T07:35:44.987Z,10
2016-02-07T07:36:45.116Z,10
2016-02-07T07:37:45.118Z,10
2016-02-07T07:38:45.121Z,10
2016-02-07T07:39:45.141Z,10
2016-02-07T07:40:45.096Z,10
2016-02-07T07:41:45.099Z,10
2016-02-07T07:42:45.102Z,15
2016-02-07T07:43:45.088Z,15
2016-02-07T07:44:45.076Z,15
2016-02-07T07:45:44.927Z,15
2016-02-07T07:46:45.094Z,15
2016-02-07T07:47:45.065Z,15
2016-02-07T07:48:45.084Z,15
2016-02-07T07:49:45.087Z,15
2016-02-07T07:50:45.057Z,15
2016-02-07T07:51:45.060Z,15
2016-02-07T07:52:45.063Z,15
2016-02-07T07:53:45.066Z,15
2016-02-07T07:54:45.038Z,15
2016-02-07T07:55:45.025Z,20
2016-02-07T07:56:44.888Z,20
2016-02-07T07:57:45.031Z,20
2016-02-07T07:58:45.017Z,20
2016-02-07T07:59:45.036Z,20
2016-02-07T08:00:45.008Z,20
2016-02-07T08:01:44.996Z,20
2016-02-07T08:02:44.999Z,20
2016-02-07T08:03:45.001Z,20
2016-02-07T08:04:45.004Z,20
2016-02-07T08:05:45.006Z,20
2016-02-07T08:06:44.979Z,20
2016-02-07T08:07:44.981Z,20
2016-02-07T08:08:45.015Z,20
2016-02-07T08:09:44.971Z,20
2016-02-07T08:10:44.973Z,20
2016-02-07T08:11:44.992Z,20
2016-02-07T08:12:45.011Z,20
2016-02-07T08:13:44.966Z,20
2016-02-07T08:14:44.942Z,20
2016-02-07T08:15:44.947Z,25
2016-02-07T08:16:44.949Z,25
2016-02-07T08:17:44.936Z,25
2016-02-07T08:18:44.938Z,25
2016-02-07T08:19:44.959Z,25
2016-02-07T08:20:44.962Z,25
2016-02-07T08:21:44.918Z,25
2016-02-07T08:22:44.904Z,25
2016-02-07T08:23:44.923Z,25
2016-02-07T08:24:44.909Z,25
2016-02-07T08:25:44.913Z,25
2016-02-07T08:26:44.931Z,25
2016-02-07T08:27:44.906Z,25
2016-02-07T08:28:44.892Z,25
2016-02-07T08:29:44.879Z,25
2016-02-07T08:30:44.881Z,25
2016-02-07T08:31:44.917Z,25
2016-02-07T08:32:44.873Z,25
2016-02-07T08:33:44.860Z,25
2016-02-07T08:34:44.893Z,25
2016-02-07T08:35:44.882Z,25
2016-02-07T08:36:44.853Z,25
2016-02-07T08:37:44.872Z,25
2016-02-07T08:38:44.890Z,25
2016-02-07T08:39:44.830Z,25
2016-02-07T08:40:44.819Z,25
2016-02-07T08:41:44.839Z,25
2016-02-07T08:42:44.888Z,25
2016-02-07T08:43:44.812Z,25
2016-02-07T08:44:44.830Z,25
2016-02-07T08:45:44.853Z,25
2016-02-07T08:46:44.844Z,25
2016-02-07T08:47:44.816Z,25
2016-02-07T08:48:44.818Z,25
2016-02-07T08:49:44.805Z,25
2016-02-07T08:50:44.808Z,25
2016-02-07T08:51:44.810Z,25
2016-02-07T08:52:44.813Z,30
2016-02-07T08:53:44.786Z,30
2016-02-07T08:54:44.772Z,30
2016-02-07T08:55:44.791Z,30
2016-02-07T08:56:44.798Z,30
2016-02-07T08:57:44.769Z,30
2016-02-07T08:58:44.772Z,30
2016-02-07T08:59:44.774Z,25
2016-02-07T09:00:44.792Z,25
2016-02-07T09:01:44.747Z,25
2016-02-07T09:02:44.750Z,30
2016-02-07T09:03:44.753Z,30
2016-02-07T09:04:44.756Z,30
2016-02-07T09:05:44.742Z,35
2016-02-07T09:06:44.729Z,35
2016-02-07T09:07:44.747Z,35
2016-02-07T09:08:44.734Z,40
2016-02-07T09:09:44.721Z,40
2016-02-07T09:10:44.725Z,40
2016-02-07T09:11:44.727Z,40
2016-02-07T09:12:44.698Z,40
2016-02-07T09:13:44.716Z,40
2016-02-07T09:14:44.706Z,40
2016-02-07T09:15:44.694Z,45
2016-02-07T09:16:44.697Z,45
2016-02-07T09:17:45.138Z,45
2016-02-07T09:18:44.704Z,45
2016-02-07T09:19:44.674Z,45
2016-02-07T09:20:44.699Z,45
2016-02-07T09:21:44.701Z,45
2016-02-07T09:22:44.675Z,45
2016-02-07T09:23:44.661Z,45
2016-02-07T09:24:44.664Z,45
2016-02-07T09:25:44.683Z,45
2016-02-07T09:26:44.654Z,45
2016-02-07T09:27:44.660Z,45
2016-02-07T09:28:44.663Z,45
2016-02-07T09:29:44.666Z,45
2016-02-07T09:30:44.637Z,45
2016-02-07T09:31:44.640Z,45
2016-02-07T09:32:44.643Z,45
2016-02-07T09:33:44.477Z,50
2016-02-07T09:34:44.652Z,50
2016-02-07T09:35:44.596Z,50
2016-02-07T09:36:44.599Z,50
2016-02-07T09:37:44.601Z,50
2016-02-07T09:38:44.603Z,50
2016-02-07T09:39:44.622Z,50
2016-02-07T09:40:44.595Z,50
2016-02-07T09:41:44.597Z,50
2016-02-07T09:42:44.599Z,50
2016-02-07T09:43:44.603Z,55
2016-02-07T09:44:44.745Z,55
2016-02-07T09:45:44.593Z,55
2016-02-07T09:46:44.564Z,55
2016-02-07T09:47:44.567Z,55
2016-02-07T09:48:44.556Z,55
2016-02-07T09:49:44.560Z,55
2016-02-07T09:50:44.562Z,55
2016-02-07T09:51:44.549Z,55
2016-02-07T09:52:44.551Z,55
2016-02-07T09:53:44.554Z,55
2016-02-07T09:54:44.541Z,55
2016-02-07T09:55:44.559Z,60
2016-02-07T09:56:44.563Z,60
2016-02-07T09:57:44.535Z,60
2016-02-07T09:58:44.554Z,60
2016-02-07T09:59:44.557Z,60
2016-02-07T10:00:44.559Z,55
2016-02-07T10:01:44.514Z,55
2016-02-07T10:02:44.519Z,55
2016-02-07T10:03:44.521Z,50
2016-02-07T10:04:44.525Z,50
2016-02-07T10:05:44.497Z,50
2016-02-07T10:06:44.530Z,50
2016-02-07T10:07:44.532Z,50
2016-02-07T10:08:44.488Z,50
2016-02-07T10:09:44.522Z,50
2016-02-07T10:10:44.495Z,50
2016-02-07T10:11:44.497Z,50
2016-02-07T10:12:44.516Z,50
2016-02-07T10:13:44.471Z,50
2016-02-07T10:14:44.475Z,55
2016-02-07T10:15:44.477Z,55
2016-02-07T10:16:44.464Z,55
2016-02-07T10:17:44.482Z,60
2016-02-07T10:18:44.455Z,60
2016-02-07T10:19:44.465Z,60
2016-02-07T10:20:44.329Z,60
2016-02-07T10:21:44.504Z,60
2016-02-07T10:22:44.459Z,60
2016-02-07T10:23:44.449Z,60
2016-02-07T10:24:44.483Z,65
2016-02-07T10:25:44.439Z,65
2016-02-07T10:26:44.442Z,65
2016-02-07T10:27:44.444Z,65
2016-02-07T10:28:44.433Z,65
2016-02-07T10:29:44.420Z,70
2016-02-07T10:30:44.438Z,70
2016-02-07T10:31:44.457Z,70
2016-02-07T10:32:44.413Z,70
2016-02-07T10:33:44.400Z,75
2016-02-07T10:34:44.419Z,75
2016-02-07T10:35:44.406Z,80
2016-02-07T10:36:44.424Z,80
2016-02-07T10:37:44.396Z,80
2016-02-07T10:38:44.400Z,80
2016-02-07T10:39:44.375Z,80
2016-02-07T10:40:44.425Z,80
2016-02-07T10:41:44.442Z,80
2016-02-07T10:42:44.382Z,80
2016-02-07T10:43:44.370Z,80
2016-02-07T10:44:44.389Z,75
2016-02-07T10:45:44.392Z,75
2016-02-07T10:46:44.379Z,75
2016-02-07T10:47:44.381Z,75
2016-02-07T10:48:44.384Z,75
2016-02-07T10:49:44.387Z,75
2016-02-07T10:50:44.345Z,80
2016-02-07T10:51:44.364Z,80
2016-02-07T10:52:44.370Z,80
2016-02-07T10:53:44.356Z,80
2016-02-07T10:54:44.359Z,80
2016-02-07T10:55:44.393Z,80
2016-02-07T10:56:44.380Z,80
2016-02-07T10:57:44.352Z,80
2016-02-07T10:58:44.354Z,80
2016-02-07T10:59:44.343Z,85
2016-02-07T11:00:44.376Z,85
2016-02-07T11:01:44.332Z,85
2016-02-07T11:02:44.334Z,85
2016-02-07T11:03:44.322Z,85
2016-02-07T11:04:44.325Z,85
2016-02-07T11:05:44.344Z,85
2016-02-07T11:06:44.299Z,85
2016-02-07T11:07:44.318Z,90
2016-02-07T11:08:44.304Z,90
2016-02-07T11:09:44.313Z,90
2016-02-07T11:10:44.273Z,90
2016-02-07T11:11:44.294Z,90
2016-02-07T11:12:44.252Z,85
2016-02-07T11:13:44.243Z,85
2016-02-07T11:14:44.241Z,85
2016-02-07T11:15:44.239Z,80
2016-02-07T11:16:44.221Z,80
2016-02-07T11:17:44.203Z,75
2016-02-07T11:18:44.189Z,75
2016-02-07T11:19:44.205Z,75
2016-02-07T11:20:44.209Z,75
2016-02-07T11:21:44.180Z,70
2016-02-07T11:22:44.165Z,70
2016-02-07T11:23:44.183Z,70
2016-02-07T11:24:44.200Z,70
2016-02-07T11:25:44.170Z,65
2016-02-07T11:26:44.158Z,65
2016-02-07T11:27:44.160Z,65
2016-02-07T11:28:44.176Z,70
2016-02-07T11:29:44.164Z,70
2016-02-07T11:30:44.167Z,70
2016-02-07T11:31:44.137Z,70
2016-02-07T11:32:44.139Z,70
2016-02-07T11:33:44.141Z,70
2016-02-07T11:34:44.130Z,70
2016-02-07T11:35:44.148Z,70
2016-02-07T11:36:44.135Z,70
2016-02-07T11:37:44.153Z,70
2016-02-07T11:38:44.140Z,70
2016-02-07T11:39:44.145Z,70
2016-02-07T11:40:44.132Z,70
2016-02-07T11:41:44.119Z,65
2016-02-07T11:42:44.122Z,65
2016-02-07T11:43:44.140Z,65
2016-02-07T11:44:44.111Z,65
2016-02-07T11:45:44.099Z,65
2016-02-07T11:46:44.117Z,65
2016-02-07T11:47:44.120Z,65
2016-02-07T11:48:44.106Z,65
2016-02-07T11:49:44.109Z,65
2016-02-07T11:50:44.112Z,65
2016-02-07T11:51:44.084Z,65
2016-02-07T11:52:44.087Z,65
2016-02-07T11:53:44.107Z,65
2016-02-07T11:54:44.110Z,65
2016-02-07T11:55:44.096Z,65
2016-02-07T11:56:44.099Z,65
2016-02-07T11:57:44.101Z,65
2016-02-07T11:58:44.104Z,65
2016-02-07T11:59:44.061Z,65
2016-02-07T12:00:44.064Z,70
2016-02-07T12:01:44.066Z,70
2016-02-07T12:02:44.100Z,70
2016-02-07T12:03:44.055Z,70
2016-02-07T12:04:44.075Z,70
2016-02-07T12:05:44.093Z,70
2016-02-07T12:06:44.054Z,70
2016-02-07T12:07:44.056Z,70
2016-02-07T12:08:44.060Z,70
2016-02-07T12:09:44.077Z,75
2016-02-07T12:10:44.048Z,75
2016-02-07T12:11:44.035Z,75
2016-02-07T12:12:44.054Z,75
2016-02-07T12:13:44.057Z,75
2016-02-07T12:14:44.030Z,80
2016-02-07T12:15:44.032Z,80
2016-02-07T12:16:44.050Z,80
2016-02-07T12:17:44.021Z,80
2016-02-07T12:18:44.010Z,80
2016-02-07T12:19:44.027Z,85
2016-02-07T12:20:44.045Z,85
2016-02-07T12:21:44.048Z,85
2016-02-07T12:22:44.020Z,85
2016-02-07T12:23:44.019Z,85
2016-02-07T12:24:44.038Z,90
2016-02-07T12:25:44.026Z,90
2016-02-07T12:26:44.029Z,90
2016-02-07T12:27:44.000Z,90
2016-02-07T12:28:44.003Z,95
2016-02-07T12:29:44.006Z,100
2016-02-07T12:30:44.024Z,105
2016-02-07T12:31:43.996Z,110
2016-02-07T12:32:44.000Z,110
2016-02-07T12:33:43.987Z,115
2016-02-07T12:34:44.006Z,115
2016-02-07T12:35:43.979Z,120
2016-02-07T12:36:43.981Z,120
2016-02-07T12:37:44.001Z,125
2016-02-07T12:38:44.003Z,125
2016-02-07T12:39:43.975Z,120
2016-02-07T12:40:43.962Z,120
2016-02-07T12:41:43.996Z,120
2016-02-07T12:42:43.984Z,120
2016-02-07T12:43:44.001Z,120
2016-02-07T12:44:43.942Z,120
2016-02-07T12:45:43.960Z,120
2016-02-07T12:46:43.963Z,120
2016-02-07T12:47:43.981Z,115
2016-02-07T12:48:43.969Z,110
2016-02-07T12:49:43.971Z,115
2016-02-07T12:50:43.991Z,115
2016-02-07T12:51:43.946Z,110
2016-02-07T12:52:43.980Z,110
2016-02-07T12:53:43.955Z,115
2016-02-07T12:54:43.942Z,110
2016-02-07T12:55:43.976Z,110
2016-02-07T12:56:43.935Z,110
2016-02-07T12:57:43.952Z,110
2016-02-07T12:58:43.940Z,110
2016-02-07T12:59:43.926Z,110
2016-02-07T13:00:43.945Z,105
2016-02-07T13:01:43.964Z,105
2016-02-07T13:02:43.936Z,105
2016-02-07T13:03:43.924Z,105
2016-02-07T13:04:43.926Z,100
2016-02-07T13:05:43.929Z,100
2016-02-07T13:06:43.931Z,95
2016-02-07T13:07:43.949Z,95
2016-02-07T13:08:43.905Z,95
2016-02-07T13:09:43.907Z,90
2016-02-07T13:10:43.910Z,90
2016-02-07T13:11:43.945Z,90
2016-02-07T13:12:43.900Z,90
2016-02-07T13:13:43.903Z,95
2016-02-07T13:14:43.921Z,95
2016-02-07T13:15:43.924Z,95
2016-02-07T13:16:43.895Z,95
2016-02-07T13:17:43.914Z,100
2016-02-07T13:18:43.917Z,105
2016-02-07T13:19:43.920Z,100
2016-02-07T13:20:43.937Z,100
2016-02-07T13:21:43.878Z,105
2016-02-07T13:22:43.881Z,105
2016-02-07T13:23:43.746Z,105
2016-02-07T13:24:43.905Z,110
2016-02-07T13:25:43.880Z,115
2016-02-07T13:26:43.898Z,120
2016-02-07T13:27:44.307Z,120
2016-02-07T13:28:43.871Z,120
2016-02-07T13:29:43.890Z,120
2016-02-07T13:30:43.737Z,120
2016-02-07T13:31:43.895Z,120
2016-02-07T13:32:43.867Z,125
2016-02-07T13:33:43.870Z,120
2016-02-07T13:34:43.888Z,125
2016-02-07T13:35:43.922Z,120
2016-02-07T13:36:43.867Z,115
2016-02-07T13:37:43.885Z,110
2016-02-07T13:38:43.872Z,105
2016-02-07T13:39:43.891Z,105
2016-02-07T13:40:43.847Z,95
2016-02-07T13:41:43.864Z,95
2016-02-07T13:42:43.867Z,90
2016-02-07T13:43:43.886Z,85
2016-02-07T13:44:43.842Z,75
2016-02-07T13:45:43.689Z,70
2016-02-07T13:46:43.848Z,70
2016-02-07T13:47:43.881Z,65
2016-02-07T13:48:43.837Z,65
2016-02-07T13:49:43.827Z,65
2016-02-07T13:50:43.829Z,65
2016-02-07T13:51:43.863Z,65
2016-02-07T13:52:43.835Z,70
2016-02-07T13:53:43.838Z,70
2016-02-07T13:54:43.842Z,70
2016-02-07T13:55:43.859Z,70
2016-02-07T13:56:43.828Z,70
2016-02-07T13:57:43.819Z,70
2016-02-07T13:58:43.838Z,70
2016-02-07T13:59:43.669Z,70
2016-02-07T14:00:43.672Z,75
2016-02-07T14:01:43.830Z,75
2016-02-07T14:02:43.865Z,80
2016-02-07T14:03:43.835Z,80
2016-02-07T14:04:43.823Z,85
2016-02-07T14:05:43.826Z,85
2016-02-07T14:06:43.797Z,80
2016-02-07T14:07:43.846Z,80
2016-02-07T14:08:43.818Z,80
2016-02-07T14:09:43.820Z,80
2016-02-07T14:10:43.827Z,80
2016-02-07T14:11:43.799Z,80
2016-02-07T14:12:43.816Z,80
2016-02-07T14:13:43.788Z,75
2016-02-07T14:14:43.791Z,75
2016-02-07T14:15:43.809Z,70
2016-02-07T14:16:43.813Z,70
2016-02-07T14:17:43.799Z,70
2016-02-07T14:18:43.804Z,70
2016-02-07T14:19:43.791Z,65
2016-02-07T14:20:43.809Z,65
2016-02-07T14:21:43.811Z,65
2016-02-07T14:22:43.799Z,65
2016-02-07T14:23:43.771Z,65
2016-02-07T14:24:43.774Z,65
2016-02-07T14:25:43.792Z,65
2016-02-07T14:26:43.781Z,60
2016-02-07T14:27:43.799Z,60
2016-02-07T14:28:43.772Z,55
2016-02-07T14:29:43.789Z,55